Bei Facebook empfehlenBei Twitter postenGoogle plusPinterest

Das Wetter im Erzgebirge am 02.08.2017

Wetter und Klima am 02.08.2017 Holzhau im Erzgebirge (630m ü.NN)
Letzte gemessene Temperatur und Uhrzeit der Messung23:45:00 Uhr16.30 °C
Temperatur (Maximum / Höchstwert) und Uhrzeit der Messung15:15:00 Uhr27.80 °C
Temperatur (Minimum / Tiefstwert) und Uhrzeit der Messung06:15:0015.50 °C
Errechneter Absolutwert der Temperaturschwankungen zwischen Tmin und Tmax des Tages12.30 K
Errechnete Tagesmitteltemperatur20.96979 °C
Gesamt - Niederschlag des Tages (in flüssiger Form)1.04 Liter / m²
Luftdruck (Maximum / Höchstwert) und Zeitpunkt der Messung12:30:00 Uhr1017.50 hPa
Luftdruck (Minimum / Tiefstwert) und Zeitpunkt der Messung02:30:00 Uhr1013.90 hPa
Errechneter Absolutwert der Luftdruckschwankungen des Tages3.60 hPa
Höchste gemessene Windgeschwindigkeit und Uhrzeit der Messung11:45:00 Uhr37.44 km/h
Errechnete Windhäufigkeit in Relation zu den Messwerten des Tages11.45833 %
Niedrigste Windkühle (Windchill) und Zeitpunkt der Messung06:15:00 Uhr15.50 °C
Taupunkt (Maximum / Höchstwert) und Uhrzeit der Messung10:15:00 Uhr19.50 °C
Taupunkt (Minimum / Tiefstwert) und Uhrzeit der Messung23:30:0014.20 °C
Anzahl der automatisch eingelesenen Messwerte 96

Detaillierte Wetter- und Klima- Messwerte für den 02.08.2017 in Holzhau im Erzgebirge (630m ü.NN)
ZeitTemperaturLuftdruckRel. LuftfeuchteWindWindrichtungWindchillTaupunktNiederschlag l/m²
23:45:0016.30 °C1016.10 hPa88.00 %14.30 °C1.04
23:30:0016.40 °C1016.20 hPa87.00 %14.20 °C1.04
23:15:0016.70 °C1016.00 hPa87.00 %14.50 °C1.04
23:00:0016.90 °C1016.10 hPa87.00 %14.70 °C1.04
22:45:0017.10 °C1016.00 hPa87.00 %14.90 °C1.04
22:30:0017.20 °C1016.10 hPa86.00 %14.80 °C1.04
22:15:0017.40 °C1016.20 hPa85.00 %14.90 °C1.04
22:00:0017.80 °C1016.10 hPa84.00 %15.10 °C1.04
21:45:0018.10 °C1016.10 hPa83.00 %15.20 °C1.04
21:30:0018.40 °C1016.20 hPa82.00 %15.30 °C1.04
21:15:0018.90 °C1016.20 hPa80.00 %15.40 °C1.04
21:00:0019.80 °C1016.20 hPa78.00 %15.90 °C1.04
20:45:0020.70 °C1015.90 hPa76.00 %16.30 °C1.04
20:30:0021.80 °C1016.00 hPa74.00 %17.00 °C1.04
20:15:0022.50 °C1015.90 hPa72.00 %17.20 °C1.04
20:00:0023.10 °C1015.90 hPa70.00 %17.30 °C1.04
19:45:0023.40 °C1016.00 hPa69.00 %17.40 °C1.04
19:30:0023.80 °C1015.80 hPa67.00 %17.30 °C1.04
19:15:0024.30 °C1015.70 hPa64.00 %12.96 km/hWSW24.30 °C17.10 °C1.04
19:00:0024.40 °C1015.80 hPa64.00 %16.92 km/hWSW24.40 °C17.10 °C1.04
18:45:0024.80 °C1015.90 hPa63.00 %17.30 °C1.04
18:30:0024.80 °C1015.90 hPa60.00 %11.52 km/hW24.80 °C16.50 °C1.04
18:15:0025.00 °C1016.30 hPa60.00 %10.44 km/hSSW25.00 °C16.70 °C1.04
18:00:0025.50 °C1016.10 hPa57.00 %16.40 °C1.04
17:45:0026.70 °C1016.10 hPa55.00 %16.90 °C1.04
17:30:0026.80 °C1016.20 hPa59.00 %18.10 °C1.04
17:15:0026.90 °C1016.30 hPa57.00 %17.70 °C1.04
17:00:0027.30 °C1016.50 hPa56.00 %17.80 °C1.04
16:45:0026.60 °C1016.60 hPa59.00 %11.52 km/hSSW26.60 °C17.90 °C1.04
16:30:0026.90 °C1016.80 hPa58.00 %17.90 °C1.04
16:15:0027.10 °C1016.60 hPa58.00 %18.10 °C1.04
16:00:0027.20 °C1016.90 hPa59.00 %18.50 °C1.04
15:45:0026.30 °C1016.90 hPa59.00 %20.88 km/hSSW28.20 °C17.60 °C1.04
15:30:0027.20 °C1016.80 hPa55.00 %17.40 °C1.04
15:15:0027.80 °C1016.90 hPa57.00 %18.50 °C1.04
15:00:0027.50 °C1016.90 hPa59.00 %18.80 °C1.04
14:45:0026.40 °C1017.00 hPa61.00 %11.52 km/hSW26.40 °C18.30 °C1.04
14:30:0025.80 °C1017.40 hPa60.00 %17.40 °C1.04
14:15:0025.80 °C1017.10 hPa62.00 %18.00 °C1.04
14:00:0026.10 °C1017.10 hPa63.00 %18.50 °C1.04
13:45:0026.10 °C1017.40 hPa61.00 %18.00 °C1.04
13:30:0026.60 °C1017.20 hPa61.00 %18.50 °C1.04
13:15:0025.90 °C1017.10 hPa64.00 %18.60 °C1.04
13:00:0026.20 °C1017.40 hPa64.00 %18.80 °C1.04
12:45:0025.90 °C1017.30 hPa65.00 %16.92 km/hSW25.90 °C18.80 °C1.04
12:30:0025.10 °C1017.50 hPa66.00 %18.30 °C1.04
12:15:0024.30 °C1017.20 hPa68.00 %18.00 °C1.04
12:00:0023.40 °C1017.40 hPa68.00 %17.20 °C1.04
11:45:0024.50 °C1017.40 hPa65.00 %37.44 km/hSW25.90 °C17.50 °C1.04
11:30:0025.30 °C1017.00 hPa66.00 %18.50 °C1.04
11:15:0025.10 °C1017.00 hPa65.00 %18.10 °C1.04
11:00:0024.30 °C1017.10 hPa67.00 %17.80 °C1.04
10:45:0024.10 °C1017.00 hPa68.00 %17.80 °C1.04
10:30:0023.80 °C1016.80 hPa71.00 %18.20 °C1.04
10:15:0023.30 °C1016.80 hPa79.00 %19.50 °C1.04
10:00:0022.40 °C1016.80 hPa79.00 %18.60 °C1.04
09:45:0021.60 °C1016.70 hPa81.00 %18.20 °C1.04
09:30:0021.10 °C1016.50 hPa82.00 %37.44 km/hS21.90 °C17.90 °C1.04
09:15:0020.90 °C1016.70 hPa83.00 %17.90 °C1.04
09:00:0020.50 °C1016.40 hPa86.00 %18.10 °C1.04
08:45:0020.50 °C1016.20 hPa85.00 %17.90 °C1.04
08:30:0020.30 °C1016.10 hPa86.00 %17.90 °C1.04
08:15:0019.90 °C1016.10 hPa88.00 %17.90 °C1.04
08:00:0019.60 °C1015.80 hPa89.00 %17.70 °C1.04
07:45:0019.20 °C1016.00 hPa93.00 %18.00 °C1.04
07:30:0018.10 °C1015.90 hPa95.00 %17.30 °C1.04
07:15:0016.30 °C1015.70 hPa94.00 %15.30 °C1.04
07:00:0016.10 °C1015.50 hPa94.00 %15.10 °C1.04
06:45:0015.80 °C1015.30 hPa94.00 %14.80 °C1.04
06:30:0015.60 °C1015.10 hPa94.00 %14.60 °C1.04
06:15:0015.50 °C1015.00 hPa93.00 %14.40 °C1.04
06:00:0015.50 °C1014.80 hPa93.00 %14.40 °C1.04
05:45:0015.60 °C1014.90 hPa93.00 %14.50 °C1.04
05:30:0015.60 °C1014.90 hPa93.00 %14.50 °C1.04
05:15:0015.60 °C1014.50 hPa93.00 %14.50 °C1.04
05:00:0015.60 °C1014.30 hPa93.00 %14.50 °C1.04
04:45:0015.60 °C1014.30 hPa93.00 %14.50 °C1.04
04:30:0015.70 °C1014.50 hPa93.00 %14.60 °C1.04
04:15:0015.90 °C1014.40 hPa92.00 %14.60 °C1.04
04:00:0015.90 °C1014.40 hPa93.00 %14.80 °C1.04
03:45:0016.00 °C1014.50 hPa92.00 %14.70 °C1.04
03:30:0016.10 °C1014.60 hPa92.00 %14.80 °C1.04
03:15:0016.30 °C1014.60 hPa92.00 %15.00 °C1.04
03:00:0016.50 °C1014.30 hPa92.00 %15.20 °C1.04
02:45:0016.60 °C1014.20 hPa92.00 %15.30 °C1.04
02:30:0016.80 °C1013.90 hPa92.00 %15.50 °C1.04
02:15:0016.90 °C1014.00 hPa92.00 %15.60 °C1.04
02:00:0017.10 °C1013.90 hPa92.00 %15.80 °C1.04
01:45:0017.10 °C1014.70 hPa92.00 %15.80 °C1.04
01:30:0017.30 °C1015.30 hPa91.00 %15.80 °C1.04
01:15:0017.30 °C1015.50 hPa91.00 %15.80 °C0.52
01:00:0017.30 °C1015.20 hPa90.00 %15.60 °C0.52
00:45:0017.30 °C1015.30 hPa91.00 %15.80 °C0.52
00:30:0017.40 °C1015.70 hPa91.00 %15.90 °C 
00:15:0017.50 °C1014.70 hPa90.00 %15.80 °C 
00:00:0017.80 °C1014.20 hPa89.00 %20.88 km/hSSO18.50 °C16.00 °C 

Permanenter Link zu dieser Seite: Wetter im Erzgebirge am 02.08.2017
Performance-Info: Die Erstellung der Seite / Statistik(en) / Tabelle(n) erforderte 5 Datenbankserver-Abfrage(n) und dauerte 121 Millisekunden. (Dieser Messwert ist von der Gesamt-Auslastung des Servers abhängig.)
Erzgebirge - Wetter | Erzgebirge - Wetter (Mobilgeräte) | Komplette Klimadatenbank